createdAt,value
2023-04-26T00:00:56.933Z,7.9
2023-04-26T00:01:58.315Z,7.9
2023-04-26T00:03:01.141Z,7.9
2023-04-26T00:04:04.959Z,7.9
2023-04-26T00:05:08.794Z,7.9
2023-04-26T00:06:10.300Z,7.9
2023-04-26T00:07:11.908Z,7.9
2023-04-26T00:08:13.459Z,7.9
2023-04-26T00:09:14.969Z,7.9
2023-04-26T00:10:16.582Z,7.9
2023-04-26T00:11:18.122Z,7.9
2023-04-26T00:12:19.655Z,7.9
2023-04-26T00:13:21.055Z,7.9
2023-04-26T00:14:22.607Z,7.9
2023-04-26T00:15:24.206Z,7.9
2023-04-26T00:16:26.383Z,7.9
2023-04-26T00:17:27.986Z,7.8
2023-04-26T00:18:29.504Z,7.8
2023-04-26T00:19:30.808Z,7.8
2023-04-26T00:20:32.250Z,7.8
2023-04-26T00:21:33.689Z,7.8
2023-04-26T00:22:35.284Z,7.8
2023-04-26T00:23:36.831Z,7.8
2023-04-26T00:24:38.392Z,7.8
2023-04-26T00:25:39.874Z,7.7
2023-04-26T00:26:41.389Z,7.8
2023-04-26T00:27:42.822Z,7.8
2023-04-26T00:28:44.357Z,7.8
2023-04-26T00:29:45.736Z,7.8
2023-04-26T00:30:47.311Z,7.8
2023-04-26T00:31:49.200Z,7.8
2023-04-26T00:32:51.102Z,7.8
2023-04-26T00:33:52.524Z,7.8
2023-04-26T00:34:54.132Z,7.8
2023-04-26T00:35:55.608Z,7.8
2023-04-26T00:36:57.166Z,7.7
2023-04-26T00:37:58.715Z,7.7
2023-04-26T00:39:00.254Z,7.6
2023-04-26T00:40:01.920Z,7.5
2023-04-26T00:41:03.449Z,7.5
2023-04-26T00:42:04.829Z,7.4
2023-04-26T00:43:06.358Z,7.3
2023-04-26T00:44:07.841Z,7.2
2023-04-26T00:45:09.182Z,7.2
2023-04-26T00:46:11.188Z,7.2
2023-04-26T00:47:12.636Z,7.2
2023-04-26T00:48:14.442Z,7.2
2023-04-26T00:49:15.981Z,7.2
2023-04-26T00:50:17.808Z,7.2
2023-04-26T00:51:19.289Z,7.2
2023-04-26T00:52:20.800Z,7.1
2023-04-26T00:53:22.328Z,7.2
2023-04-26T00:54:23.795Z,7.2
2023-04-26T00:55:25.538Z,7.2
2023-04-26T00:56:27.082Z,7.2
2023-04-26T00:57:28.669Z,7.2
2023-04-26T00:58:30.258Z,7.2
2023-04-26T00:59:31.808Z,7.2
2023-04-26T01:00:33.332Z,7.1
2023-04-26T01:01:35.576Z,7.1
2023-04-26T01:02:38.074Z,7.1
2023-04-26T01:03:40.953Z,7.2
2023-04-26T01:04:42.646Z,7.2
2023-04-26T01:05:44.193Z,7.2
2023-04-26T01:06:45.701Z,7.2
2023-04-26T01:07:47.281Z,7.2
2023-04-26T01:08:48.833Z,7.2
2023-04-26T01:09:50.245Z,7.2
2023-04-26T01:10:51.762Z,7.2
2023-04-26T01:11:53.295Z,7.2
2023-04-26T01:12:54.879Z,7.2
2023-04-26T01:13:56.416Z,7.2
2023-04-26T01:14:57.820Z,7.2
2023-04-26T01:15:59.354Z,7.2
2023-04-26T01:17:01.374Z,7.2
2023-04-26T01:18:03.253Z,7.2
2023-04-26T01:19:04.730Z,7.2
2023-04-26T01:20:06.319Z,7.2
2023-04-26T01:21:07.731Z,7.2
2023-04-26T01:22:09.269Z,7.2
2023-04-26T01:23:10.806Z,7.2
2023-04-26T01:24:12.191Z,7.2
2023-04-26T01:25:13.732Z,7.2
2023-04-26T01:26:15.209Z,7.2
2023-04-26T01:27:16.711Z,7.2
2023-04-26T01:28:18.258Z,7.2
2023-04-26T01:29:19.855Z,7.2
2023-04-26T01:30:21.294Z,7.2
2023-04-26T01:31:22.934Z,7.2
2023-04-26T01:32:24.416Z,7.2
2023-04-26T01:33:26.236Z,7.2
2023-04-26T01:34:27.640Z,7.2
2023-04-26T01:35:29.202Z,7.2
2023-04-26T01:36:30.784Z,7.2
2023-04-26T01:37:32.361Z,7.2
2023-04-26T01:38:33.947Z,7.2
2023-04-26T01:39:35.548Z,7.2
2023-04-26T01:40:36.931Z,7.2
2023-04-26T01:41:38.418Z,7.2
2023-04-26T01:42:39.799Z,7.2
2023-04-26T01:43:41.209Z,7.2
2023-04-26T01:44:42.486Z,7.2
2023-04-26T01:45:43.986Z,7.2
2023-04-26T01:46:46.119Z,7.2
2023-04-26T01:47:48.027Z,7.2
2023-04-26T01:48:49.854Z,7.2
2023-04-26T01:49:51.372Z,7.2
2023-04-26T01:50:52.910Z,7.3
2023-04-26T01:51:54.457Z,7.3
2023-04-26T01:52:55.958Z,7.4
2023-04-26T01:53:57.506Z,7.4
2023-04-26T01:54:58.937Z,7.4
2023-04-26T01:56:00.454Z,7.5
2023-04-26T01:57:01.986Z,7.5
2023-04-26T01:58:03.578Z,7.6
2023-04-26T01:59:05.105Z,7.6
2023-04-26T02:00:06.523Z,7.7
2023-04-26T02:01:08.324Z,7.8
2023-04-26T02:02:10.666Z,7.8
2023-04-26T02:03:13.085Z,7.8
2023-04-26T02:04:14.405Z,7.9
2023-04-26T02:05:16.275Z,7.9
2023-04-26T02:06:17.871Z,7.9
2023-04-26T02:07:19.256Z,7.8
2023-04-26T02:08:20.785Z,7.8
2023-04-26T02:09:22.274Z,7.9
2023-04-26T02:10:23.847Z,7.9
2023-04-26T02:11:25.281Z,7.7
2023-04-26T02:12:26.847Z,7.8
2023-04-26T02:13:28.376Z,7.9
2023-04-26T02:14:29.906Z,7.9
2023-04-26T02:15:31.444Z,7.9
2023-04-26T02:16:33.661Z,7.9
2023-04-26T02:17:35.455Z,7.9
2023-04-26T02:18:36.878Z,7.8
2023-04-26T02:19:38.562Z,7.8
2023-04-26T02:20:39.939Z,7.7
2023-04-26T02:21:41.455Z,7.6
2023-04-26T02:22:42.937Z,7.5
2023-04-26T02:23:44.544Z,7.3
2023-04-26T02:24:46.048Z,7.1
2023-04-26T02:25:47.682Z,7.1
2023-04-26T02:26:49.081Z,7.1
2023-04-26T02:27:50.599Z,7.1
2023-04-26T02:28:53.876Z,7.1
2023-04-26T02:29:55.393Z,7.1
2023-04-26T02:30:57.043Z,7.1
2023-04-26T02:31:59.045Z,7.1
2023-04-26T02:33:00.852Z,7.1
2023-04-26T02:34:02.500Z,7.1
2023-04-26T02:35:03.973Z,7.1
2023-04-26T02:36:05.292Z,7.1
2023-04-26T02:37:06.730Z,7.1
2023-04-26T02:38:08.291Z,7.1
2023-04-26T02:39:09.840Z,7.1
2023-04-26T02:40:11.464Z,7.1
2023-04-26T02:41:13.024Z,7.1
2023-04-26T02:42:14.305Z,7.1
2023-04-26T02:43:15.807Z,7.1
2023-04-26T02:44:17.173Z,7.1
2023-04-26T02:45:18.709Z,7.1
2023-04-26T02:46:20.426Z,7.1
2023-04-26T02:47:22.051Z,7.1
2023-04-26T02:48:23.600Z,7.1
2023-04-26T02:49:25.006Z,7.2
2023-04-26T02:50:26.526Z,7.2
2023-04-26T02:51:28.120Z,7.2
2023-04-26T02:52:29.506Z,7.2
2023-04-26T02:53:31.054Z,7.2
2023-04-26T02:54:32.635Z,7.2
2023-04-26T02:55:34.109Z,7.2
2023-04-26T02:56:35.778Z,7.2
2023-04-26T02:57:37.332Z,7.2
2023-04-26T02:58:38.866Z,7.2
2023-04-26T02:59:40.390Z,7.2
2023-04-26T03:00:41.988Z,7.2
2023-04-26T03:01:43.559Z,7.2
2023-04-26T03:02:45.986Z,7.2
2023-04-26T03:03:48.367Z,7.3
2023-04-26T03:04:49.967Z,7.3
2023-04-26T03:05:51.547Z,7.4
2023-04-26T03:06:53.082Z,7.4
2023-04-26T03:07:54.656Z,7.5
2023-04-26T03:08:56.616Z,7.6
2023-04-26T03:09:57.896Z,7.7
2023-04-26T03:10:59.447Z,7.8
2023-04-26T03:12:01.084Z,7.9
2023-04-26T03:13:02.659Z,7.9
2023-04-26T03:14:04.196Z,7.9
2023-04-26T03:15:05.728Z,7.9
2023-04-26T03:16:07.486Z,7.9
2023-04-26T03:17:09.062Z,7.9
2023-04-26T03:18:10.729Z,7.9
2023-04-26T03:19:12.311Z,7.9
2023-04-26T03:20:13.867Z,7.9
2023-04-26T03:21:15.399Z,7.8
2023-04-26T03:22:16.900Z,7.9
2023-04-26T03:23:18.299Z,7.9
2023-04-26T03:24:19.828Z,7.3
2023-04-26T03:25:21.365Z,7.5
2023-04-26T03:26:22.910Z,7.7
2023-04-26T03:27:24.487Z,7.8
2023-04-26T03:28:25.987Z,7.9
2023-04-26T03:29:27.375Z,7.9
2023-04-26T03:30:28.917Z,7.9
2023-04-26T03:31:30.602Z,7.9
2023-04-26T03:32:32.363Z,7.9
2023-04-26T03:33:33.951Z,7.9
2023-04-26T03:34:35.498Z,7.9
2023-04-26T03:35:37.049Z,7.9
2023-04-26T03:36:38.859Z,7.9
2023-04-26T03:37:40.528Z,7.9
2023-04-26T03:38:42.048Z,7.9
2023-04-26T03:39:43.605Z,7.9
2023-04-26T03:40:45.136Z,7.9
2023-04-26T03:41:46.560Z,7.9
2023-04-26T03:42:48.081Z,7.9
2023-04-26T03:43:49.584Z,7.3
2023-04-26T03:44:51.073Z,7.5
2023-04-26T03:45:52.825Z,7.6
2023-04-26T03:46:54.331Z,7.7
2023-04-26T03:47:56.447Z,7.8
2023-04-26T03:48:57.989Z,7.9
2023-04-26T03:50:00.377Z,7.9
2023-04-26T03:51:02.018Z,7.9
2023-04-26T03:52:03.642Z,7.9
2023-04-26T03:53:05.169Z,7.9
2023-04-26T03:54:06.685Z,7.9
2023-04-26T03:55:08.240Z,7.9
2023-04-26T03:56:09.768Z,7.9
2023-04-26T03:57:11.095Z,7.9
2023-04-26T03:58:12.618Z,7.9
2023-04-26T03:59:14.033Z,7.9
2023-04-26T04:00:15.495Z,7.9
2023-04-26T04:01:16.876Z,7.8
2023-04-26T04:02:18.965Z,7.8
2023-04-26T04:03:21.836Z,7.9
2023-04-26T04:04:25.854Z,7.9
2023-04-26T04:05:27.937Z,7.9
2023-04-26T04:06:29.499Z,7.9
2023-04-26T04:07:31.053Z,7.9
2023-04-26T04:08:32.429Z,7.9
2023-04-26T04:09:33.805Z,7.9
2023-04-26T04:10:35.415Z,7.9
2023-04-26T04:11:36.956Z,7.9
2023-04-26T04:12:38.570Z,7.9
2023-04-26T04:13:40.138Z,7.9
2023-04-26T04:14:41.381Z,7.8
2023-04-26T04:15:43.283Z,7.8
2023-04-26T04:16:44.678Z,7.8
2023-04-26T04:17:46.545Z,7.7
2023-04-26T04:18:48.138Z,7.7
2023-04-26T04:19:49.633Z,7.7
2023-04-26T04:20:51.041Z,7.7
2023-04-26T04:21:52.474Z,7.7
2023-04-26T04:22:53.876Z,7.7
2023-04-26T04:23:55.808Z,7.7
2023-04-26T04:24:57.190Z,7.8
2023-04-26T04:25:58.936Z,7.8
2023-04-26T04:27:00.404Z,7.7
2023-04-26T04:28:01.982Z,7.6
2023-04-26T04:29:03.639Z,7.5
2023-04-26T04:30:05.153Z,7.4
2023-04-26T04:31:06.993Z,7.3
2023-04-26T04:32:08.582Z,7.2
2023-04-26T04:33:10.438Z,7.1
2023-04-26T04:34:11.910Z,7.1
2023-04-26T04:35:13.197Z,7.1
2023-04-26T04:36:14.758Z,7.1
2023-04-26T04:37:16.339Z,7.1
2023-04-26T04:38:17.827Z,7.1
2023-04-26T04:39:19.315Z,7.1
2023-04-26T04:40:20.717Z,7.1
2023-04-26T04:41:21.842Z,7.1
2023-04-26T04:42:23.287Z,7.1
2023-04-26T04:43:24.836Z,7.1
2023-04-26T04:44:26.234Z,7.1
2023-04-26T04:45:27.618Z,7.1
2023-04-26T04:46:29.426Z,7.1
2023-04-26T04:47:31.181Z,7.1
2023-04-26T04:48:32.669Z,7.1
2023-04-26T04:49:34.266Z,7.1
2023-04-26T04:50:35.855Z,7.1
2023-04-26T04:51:37.342Z,7.1
2023-04-26T04:52:38.948Z,7.1
2023-04-26T04:53:40.544Z,7.1
2023-04-26T04:54:41.965Z,7.1
2023-04-26T04:55:43.570Z,7.1
2023-04-26T04:56:45.213Z,7.2
2023-04-26T04:57:46.652Z,7.1
2023-04-26T04:58:48.301Z,7.2
2023-04-26T04:59:49.965Z,7.2
2023-04-26T05:00:51.472Z,7.2
2023-04-26T05:01:53.164Z,7.2
2023-04-26T05:02:55.821Z,7.2
2023-04-26T05:04:00.261Z,7.2
2023-04-26T05:05:02.455Z,7.2
2023-04-26T05:06:04.022Z,7.2
2023-04-26T05:07:05.621Z,7.2
2023-04-26T05:08:07.218Z,7.2
2023-04-26T05:09:08.656Z,7.2
2023-04-26T05:10:09.947Z,7.3
2023-04-26T05:11:11.368Z,7.4
2023-04-26T05:12:13.004Z,7.5
2023-04-26T05:13:14.587Z,7.6
2023-04-26T05:14:16.153Z,7.7
2023-04-26T05:15:17.726Z,7.8
2023-04-26T05:16:19.510Z,7.9
2023-04-26T05:17:21.047Z,7.9
2023-04-26T05:18:22.592Z,7.9
2023-04-26T05:19:23.969Z,7.9
2023-04-26T05:20:25.554Z,7.3
2023-04-26T05:21:27.097Z,7.5
2023-04-26T05:22:28.630Z,7.7
2023-04-26T05:23:30.135Z,7.8
2023-04-26T05:24:31.691Z,7.9
2023-04-26T05:25:33.301Z,7.9
2023-04-26T05:26:34.846Z,7.9
2023-04-26T05:27:36.469Z,7.9
2023-04-26T05:28:37.950Z,7.9
2023-04-26T05:29:39.476Z,7.9
2023-04-26T05:30:40.857Z,7.9
2023-04-26T05:31:42.649Z,7.9
2023-04-26T05:32:44.461Z,7.9
2023-04-26T05:33:46.069Z,7.9
2023-04-26T05:34:47.594Z,7.9
2023-04-26T05:35:49.133Z,7.9
2023-04-26T05:36:50.689Z,7.9
2023-04-26T05:37:52.080Z,7.9
2023-04-26T05:38:53.686Z,7.9
2023-04-26T05:39:55.159Z,7.9
2023-04-26T05:40:56.638Z,7.9
2023-04-26T05:41:58.266Z,7.8
2023-04-26T05:42:59.717Z,7.8
2023-04-26T05:44:01.359Z,7.8
2023-04-26T05:45:02.931Z,7.2
2023-04-26T05:46:04.918Z,7.2
2023-04-26T05:47:06.381Z,7.2
2023-04-26T05:48:08.416Z,7.3
2023-04-26T05:49:10.047Z,7.3
2023-04-26T05:50:11.398Z,7.3
2023-04-26T05:51:12.881Z,7.3
2023-04-26T05:52:14.471Z,7.3
2023-04-26T05:53:16.164Z,7.4
2023-04-26T05:54:17.794Z,7.4
2023-04-26T05:55:19.425Z,7.4
2023-04-26T05:56:20.945Z,7.4
2023-04-26T05:57:22.529Z,7.4
2023-04-26T05:58:24.180Z,7.4
2023-04-26T05:59:25.787Z,7.4
2023-04-26T06:00:27.263Z,7.4
2023-04-26T06:01:28.893Z,7.5
2023-04-26T06:02:31.611Z,7.5
2023-04-26T06:03:35.509Z,7.6
2023-04-26T06:04:38.654Z,7.6
2023-04-26T06:05:40.740Z,7.7
2023-04-26T06:06:42.413Z,7.7
2023-04-26T06:07:43.841Z,7.7
2023-04-26T06:08:45.246Z,7.7
2023-04-26T06:09:46.774Z,7.7
2023-04-26T06:10:48.383Z,7.7
2023-04-26T06:11:49.789Z,7.7
2023-04-26T06:12:51.359Z,7.7
2023-04-26T06:13:54.919Z,7.7
2023-04-26T06:14:56.724Z,7.8
2023-04-26T06:15:58.133Z,7.8
2023-04-26T06:17:15.161Z,7.8
2023-04-26T08:55:34.768Z,7.2
2023-04-26T08:56:36.464Z,7.2
2023-04-26T08:57:38.097Z,7.2
2023-04-26T08:58:39.304Z,7.2
2023-04-26T08:59:40.805Z,7.3
2023-04-26T09:00:42.218Z,7.3
2023-04-26T09:01:43.974Z,7.3
2023-04-26T09:02:46.260Z,7.3
2023-04-26T09:03:48.883Z,7.4
2023-04-26T09:09:59.139Z,7.7
2023-04-26T09:11:00.722Z,7.8
2023-04-26T09:12:02.243Z,7.8
2023-04-26T09:13:03.702Z,7.9
2023-04-26T09:14:05.043Z,7.9
2023-04-26T09:15:06.531Z,7.3
2023-04-26T09:16:08.494Z,7.4
2023-04-26T09:17:10.084Z,7.6
2023-04-26T09:18:11.689Z,7.8
2023-04-26T09:19:13.295Z,7.9
2023-04-26T09:20:14.956Z,7.9
2023-04-26T09:21:16.617Z,7.9
2023-04-26T09:22:18.188Z,7.9
2023-04-26T09:23:19.729Z,7.9
2023-04-26T09:24:21.412Z,7.7
2023-04-26T09:25:25.721Z,7.8
2023-04-26T09:26:27.125Z,7.9
2023-04-26T09:27:28.655Z,7.7
2023-04-26T09:28:30.223Z,7.8
2023-04-26T09:29:31.603Z,7.9
2023-04-26T09:30:33.153Z,7.2
2023-04-26T09:31:35.011Z,7.4
2023-04-26T09:32:36.833Z,7.4
2023-04-26T09:33:38.397Z,7.5
2023-04-26T09:34:40.211Z,7.6
2023-04-26T09:35:41.955Z,7.6
2023-04-26T09:36:43.627Z,7.7
2023-04-26T10:39:46.664Z,7.6
2023-04-26T10:41:49.666Z,7.7
2023-04-26T10:42:51.083Z,7.8
2023-04-26T10:46:58.983Z,7.9
2023-04-26T10:49:02.630Z,7.9
2023-04-26T10:53:11.731Z,7.9
2023-04-26T10:54:13.240Z,7.9
2023-04-26T10:55:14.943Z,7.9
2023-04-26T10:56:16.354Z,7.9
2023-04-26T10:57:17.893Z,7.9
2023-04-26T10:58:19.318Z,7.9
2023-04-26T12:26:32.088Z,7.6
2023-04-26T14:23:44.059Z,7.2
2023-04-26T14:25:47.231Z,7.2
2023-04-26T14:26:48.835Z,7.2
2023-04-26T14:28:55.341Z,7.3
2023-04-26T14:29:56.845Z,7.3
2023-04-26T14:30:58.513Z,7.3
2023-04-26T14:32:00.456Z,7.4
2023-04-26T14:33:02.325Z,7.4
2023-04-26T14:34:03.783Z,7.4
2023-04-26T14:35:05.281Z,7.5
2023-04-26T14:36:06.833Z,7.5
2023-04-26T14:37:08.266Z,7.6
2023-04-26T14:38:09.674Z,7.6
2023-04-26T14:39:11.310Z,7.7
2023-04-26T14:40:12.934Z,7.8
2023-04-26T14:41:14.542Z,7.8
2023-04-26T14:42:16.091Z,7.9
2023-04-26T14:43:17.624Z,7.9
2023-04-26T14:44:19.264Z,7.9
2023-04-26T15:48:32.824Z,7.5
2023-04-26T15:49:34.448Z,7.6
2023-04-26T15:50:35.853Z,7.6
2023-04-26T15:51:37.254Z,7.7
2023-04-26T15:58:52.570Z,7.9
2023-04-26T15:59:54.168Z,7.9
2023-04-26T16:00:55.752Z,7.9
2023-04-26T16:01:57.682Z,7.9
2023-04-26T16:08:09.767Z,7.9
2023-04-26T17:00:47.903Z,7.1
2023-04-26T17:09:03.704Z,7.1
2023-04-26T17:10:05.287Z,7.2
2023-04-26T17:11:06.735Z,7.2
2023-04-26T17:12:08.268Z,7.2
2023-04-26T17:13:09.664Z,7.3
2023-04-26T17:14:11.264Z,7.5
2023-04-26T17:15:12.727Z,7.7
2023-04-26T17:16:14.610Z,7.9
2023-04-26T17:17:16.064Z,7.9
2023-04-26T17:18:17.627Z,7.9
2023-04-26T17:19:19.385Z,7.9
2023-04-26T17:20:20.956Z,7.9
2023-04-26T17:21:22.534Z,7.9
2023-04-26T17:22:24.148Z,7.9
2023-04-26T17:23:25.742Z,7.9
2023-04-26T17:24:27.271Z,7.9
2023-04-26T17:25:28.819Z,7.9
2023-04-26T17:26:30.418Z,7.9
2023-04-26T17:27:31.781Z,7.8
2023-04-26T17:28:33.336Z,7.8
2023-04-26T17:29:34.903Z,7.8
2023-04-26T17:30:36.336Z,7.7
2023-04-26T17:31:38.264Z,7.7
2023-04-26T17:32:40.087Z,7.6
2023-04-26T17:33:41.655Z,7.5
2023-04-26T17:34:43.197Z,7.5
2023-04-26T17:35:44.499Z,7.4
2023-04-26T17:36:45.977Z,7.4
2023-04-26T17:37:47.557Z,7.4
2023-04-26T17:38:49.028Z,7.3
2023-04-26T17:39:50.529Z,7.3
2023-04-26T17:40:51.980Z,7.3
2023-04-26T17:41:53.550Z,7.3
2023-04-26T17:42:55.136Z,7.3
2023-04-26T17:43:56.422Z,7.4
2023-04-26T17:44:57.855Z,7.4
2023-04-26T17:45:59.796Z,7.4
2023-04-26T17:47:01.125Z,7.4
2023-04-26T17:48:02.688Z,7.4
2023-04-26T17:49:04.249Z,7.5
2023-04-26T17:50:05.842Z,7.5
2023-04-26T17:51:07.563Z,7.5
2023-04-26T17:52:09.185Z,7.6
2023-04-26T17:53:10.838Z,7.6
2023-04-26T17:54:12.241Z,7.7
2023-04-26T17:55:13.853Z,7.8
2023-04-26T17:56:15.357Z,7.8
2023-04-26T17:57:16.904Z,7.9
2023-04-26T17:58:18.413Z,7.9
2023-04-26T17:59:19.945Z,7.9
2023-04-26T18:00:21.517Z,7.9
2023-04-26T18:01:23.553Z,7.7
2023-04-26T18:02:26.345Z,7.8
2023-04-26T18:03:29.004Z,7.9
2023-04-26T18:04:32.517Z,7.9
2023-04-26T18:05:34.322Z,7.9
2023-04-26T18:06:35.903Z,7.9
2023-04-26T18:07:37.658Z,7.9
2023-04-26T18:08:38.973Z,7.3
2023-04-26T18:09:40.394Z,7.4
2023-04-26T18:10:41.683Z,7.5
2023-04-26T18:11:43.243Z,7.6
2023-04-26T18:12:44.567Z,7.7
2023-04-26T18:13:45.964Z,7.8
2023-04-26T18:14:47.519Z,7.8
2023-04-26T18:15:49.080Z,7.8
2023-04-26T18:16:51.123Z,7.8
2023-04-26T18:17:52.995Z,7.9
2023-04-26T18:18:54.606Z,7.9
2023-04-26T18:19:56.015Z,7.9
2023-04-26T18:20:57.530Z,7.8
2023-04-26T18:21:59.104Z,7.2
2023-04-26T18:23:00.704Z,7.3
2023-04-26T18:24:02.382Z,7.3
2023-04-26T18:25:04.008Z,7.4
2023-04-26T18:26:05.417Z,7.4
2023-04-26T18:27:07.001Z,7.5
2023-04-26T18:28:08.541Z,7.6
2023-04-26T18:29:10.149Z,7.6
2023-04-26T18:30:11.727Z,7.7
2023-04-26T18:31:13.678Z,7.8
2023-04-26T18:32:15.332Z,7.8
2023-04-26T18:33:17.250Z,7.9
2023-04-26T18:34:18.861Z,7.9
2023-04-26T18:35:20.461Z,7.9
2023-04-26T18:36:22.091Z,7.9
2023-04-26T18:37:23.864Z,7.9
2023-04-26T18:38:25.461Z,7.9
2023-04-26T18:39:27.174Z,7.9
2023-04-26T18:40:28.697Z,7.8
2023-04-26T18:41:30.269Z,7.8
2023-04-26T18:42:31.909Z,7.7
2023-04-26T18:43:33.319Z,7.6
2023-04-26T18:44:34.885Z,7.4
2023-04-26T18:45:36.648Z,7.3
2023-04-26T18:46:38.611Z,7.1
2023-04-26T18:47:40.432Z,7.1
2023-04-26T18:48:42.040Z,7.1
2023-04-26T18:49:43.446Z,7.1
2023-04-26T18:50:44.841Z,7.1
2023-04-26T18:51:46.416Z,7.1
2023-04-26T18:52:47.995Z,7.1
2023-04-26T18:53:49.783Z,7.1
2023-04-26T18:54:51.336Z,7.1
2023-04-26T18:55:52.771Z,7.1
2023-04-26T18:56:54.243Z,7.1
2023-04-26T18:57:55.947Z,7.1
2023-04-26T18:58:57.637Z,7.1
2023-04-26T18:59:59.218Z,7.1
2023-04-26T19:01:00.860Z,7.1
2023-04-26T19:02:03.460Z,7.1
2023-04-26T19:03:05.901Z,7.2
2023-04-26T19:04:08.505Z,7.1
2023-04-26T19:05:11.968Z,7.1
2023-04-26T19:06:13.642Z,7.2
2023-04-26T19:07:14.971Z,7.1
2023-04-26T19:08:16.517Z,7.1
2023-04-26T19:09:18.167Z,7.2
2023-04-26T19:10:19.623Z,7.2
2023-04-26T19:11:21.031Z,7.2
2023-04-26T19:12:22.698Z,7.2
2023-04-26T19:13:24.221Z,7.2
2023-04-26T19:14:25.655Z,7.2
2023-04-26T19:15:27.057Z,7.2
2023-04-26T19:16:29.525Z,7.2
2023-04-26T19:17:31.460Z,7.2
2023-04-26T19:18:33.134Z,7.2
2023-04-26T19:19:34.429Z,7.2
2023-04-26T19:20:35.870Z,7.3
2023-04-26T19:21:37.373Z,7.3
2023-04-26T19:22:38.953Z,7.4
2023-04-26T19:23:40.429Z,7.4
2023-04-26T19:24:42.119Z,7.5
2023-04-26T19:25:43.693Z,7.6
2023-04-26T19:26:45.262Z,7.7
2023-04-26T19:27:46.742Z,7.8
2023-04-26T19:28:48.231Z,7.8
2023-04-26T19:29:49.687Z,7.9
2023-04-26T19:30:51.222Z,7.9
2023-04-26T19:31:53.368Z,7.9
2023-04-26T19:32:55.271Z,7.9
2023-04-26T19:33:57.049Z,7.9
2023-04-26T19:34:58.621Z,7.9
2023-04-26T19:36:00.229Z,7.9
2023-04-26T19:37:01.816Z,7.9
2023-04-26T19:38:03.451Z,7.9
2023-04-26T19:39:05.011Z,7.9
2023-04-26T19:40:06.651Z,7.9
2023-04-26T19:41:08.303Z,7.8
2023-04-26T19:42:09.858Z,7.9
2023-04-26T19:43:11.488Z,7.9
2023-04-26T19:44:13.069Z,7.9
2023-04-26T19:45:14.664Z,7.9
2023-04-26T19:46:16.740Z,7.9
2023-04-26T19:47:18.136Z,7.9
2023-04-26T19:48:19.675Z,7.9
2023-04-26T19:49:21.239Z,7.9
2023-04-26T19:50:22.844Z,7.9
2023-04-26T19:51:24.209Z,7.9
2023-04-26T19:52:25.783Z,7.9
2023-04-26T19:53:27.241Z,7.9
2023-04-26T19:54:28.723Z,7.9
2023-04-26T19:55:30.312Z,7.9
2023-04-26T19:56:31.934Z,7.9
2023-04-26T19:57:33.542Z,7.9
2023-04-26T19:58:34.972Z,7.9
2023-04-26T19:59:36.358Z,7.2
2023-04-26T20:00:38.374Z,7.3
2023-04-26T20:01:40.178Z,7.4
2023-04-26T20:02:42.311Z,7.4
2023-04-26T20:03:45.471Z,7.5
2023-04-26T20:04:47.079Z,7.5
2023-04-26T20:05:48.646Z,7.6
2023-04-26T20:06:50.208Z,7.6
2023-04-26T20:07:51.860Z,7.7
2023-04-26T20:08:53.359Z,7.8
2023-04-26T20:09:54.956Z,7.8
2023-04-26T20:10:56.658Z,7.9
2023-04-26T20:11:58.236Z,7.9
2023-04-26T20:12:59.528Z,7.9
2023-04-26T20:14:01.149Z,7.9
2023-04-26T20:15:02.765Z,7.8
2023-04-26T20:16:04.359Z,7.9
2023-04-26T20:17:06.264Z,7.5
2023-04-26T20:18:08.354Z,7.6
2023-04-26T20:19:11.356Z,7.8
2023-04-26T20:20:13.153Z,7.9
2023-04-26T20:21:14.770Z,7.9
2023-04-26T20:22:16.390Z,7.9
2023-04-26T20:23:17.907Z,7.9
2023-04-26T20:24:19.529Z,7.9
2023-04-26T20:25:21.423Z,7.9
2023-04-26T20:26:23.000Z,7.9
2023-04-26T20:27:24.620Z,7.9
2023-04-26T20:28:26.218Z,7.9
2023-04-26T20:29:27.737Z,7.9
2023-04-26T20:30:29.316Z,7.9
2023-04-26T20:31:31.339Z,7.9
2023-04-26T20:32:33.260Z,7.9
2023-04-26T20:33:34.928Z,7.9
2023-04-26T20:34:36.491Z,7.9
2023-04-26T20:35:38.133Z,7.9
2023-04-26T20:36:39.695Z,7.9
2023-04-26T20:37:41.236Z,7.2
2023-04-26T20:38:42.807Z,7.3
2023-04-26T20:39:44.364Z,7.4
2023-04-26T20:40:45.755Z,7.5
2023-04-26T20:41:47.123Z,7.6
2023-04-26T20:42:48.709Z,7.7
2023-04-26T20:43:50.271Z,7.8
2023-04-26T20:44:51.857Z,7.8
2023-04-26T20:45:53.721Z,7.8
2023-04-26T20:46:55.296Z,7.8
2023-04-26T20:47:57.212Z,7.9
2023-04-26T20:48:58.777Z,7.9
2023-04-26T20:50:00.225Z,7.9
2023-04-26T20:51:01.814Z,7.9
2023-04-26T20:52:03.814Z,7.9
2023-04-26T20:53:05.471Z,7.9
2023-04-26T20:54:07.014Z,7.9
2023-04-26T20:55:08.629Z,7.9
2023-04-26T20:56:10.048Z,7.9
2023-04-26T20:57:11.716Z,7.9
2023-04-26T20:58:13.354Z,7.5
2023-04-26T20:59:15.018Z,7.6
2023-04-26T21:00:16.595Z,7.7
2023-04-26T21:01:18.489Z,7.8
2023-04-26T21:02:20.724Z,7.9
2023-04-26T21:03:23.885Z,7.9
2023-04-26T21:04:27.602Z,7.9
2023-04-26T21:05:29.244Z,7.9
2023-04-26T21:06:30.869Z,7.9
2023-04-26T21:07:32.430Z,7.8
2023-04-26T21:08:38.140Z,7.8
2023-04-26T21:09:39.678Z,7.8
2023-04-26T21:10:41.299Z,7.8
2023-04-26T21:11:43.077Z,7.8
2023-04-26T21:12:44.730Z,7.8
2023-04-26T21:13:46.411Z,7.8
2023-04-26T21:14:48.002Z,7.8
2023-04-26T21:15:49.887Z,7.8
2023-04-26T21:16:51.225Z,7.8
2023-04-26T21:17:53.105Z,7.9
2023-04-26T21:18:54.688Z,7.9
2023-04-26T21:19:56.239Z,7.9
2023-04-26T21:20:57.858Z,7.9
2023-04-26T21:21:59.647Z,7.9
2023-04-26T21:23:01.240Z,7.9
2023-04-26T21:24:02.792Z,7.9
2023-04-26T21:25:04.495Z,7.9
2023-04-26T21:26:05.939Z,7.9
2023-04-26T21:27:07.552Z,7.9
2023-04-26T21:28:09.132Z,7.9
2023-04-26T21:29:11.306Z,7.9
2023-04-26T21:30:12.752Z,7.9
2023-04-26T21:31:14.647Z,7.9
2023-04-26T21:32:16.290Z,7.9
2023-04-26T21:33:18.163Z,7.9
2023-04-26T21:34:19.724Z,7.9
2023-04-26T21:35:21.260Z,7.9
2023-04-26T21:36:22.753Z,7.9
2023-04-26T21:37:24.357Z,7.9
2023-04-26T21:38:25.860Z,7.9
2023-04-26T21:39:27.379Z,7.9
2023-04-26T21:40:29.000Z,7.9
2023-04-26T21:41:30.412Z,7.9
2023-04-26T21:42:31.927Z,7.9
2023-04-26T21:43:33.505Z,7.9
2023-04-26T21:44:35.106Z,7.9
2023-04-26T21:45:36.768Z,7.9
2023-04-26T21:46:38.491Z,7.9
2023-04-26T21:47:40.379Z,7.9
2023-04-26T21:48:41.923Z,7.9
2023-04-26T21:49:43.448Z,7.9
2023-04-26T21:50:44.920Z,7.9
2023-04-26T21:51:46.462Z,7.9
2023-04-26T21:52:47.749Z,7.9
2023-04-26T21:53:49.345Z,7.9
2023-04-26T21:54:54.177Z,7.9
2023-04-26T21:55:55.729Z,7.9
2023-04-26T21:56:57.283Z,7.9
2023-04-26T21:57:58.886Z,7.9
2023-04-26T21:59:00.465Z,7.9
2023-04-26T22:00:02.130Z,7.9
2023-04-26T22:01:03.891Z,7.9
2023-04-26T22:02:05.787Z,7.9
2023-04-26T22:03:08.142Z,7.9
2023-04-26T22:04:11.044Z,7.9
2023-04-26T22:05:12.669Z,7.9
2023-04-26T22:06:14.230Z,7.9
2023-04-26T22:07:15.661Z,7.9
2023-04-26T22:08:17.232Z,7.9
2023-04-26T22:09:18.852Z,7.9
2023-04-26T22:10:20.400Z,7.9
2023-04-26T22:11:21.951Z,7.9
2023-04-26T22:12:23.487Z,7.9
2023-04-26T22:13:25.031Z,7.9
2023-04-26T22:14:26.390Z,7.9
2023-04-26T22:15:27.691Z,7.9
2023-04-26T22:16:29.633Z,7.9
2023-04-26T22:17:31.486Z,7.9
2023-04-26T22:18:33.045Z,7.9
2023-04-26T22:19:34.436Z,7.9
2023-04-26T22:20:35.975Z,7.9
2023-04-26T22:21:37.390Z,7.9
2023-04-26T22:22:38.925Z,7.9
2023-04-26T22:23:40.339Z,7.9
2023-04-26T22:24:41.898Z,7.9
2023-04-26T22:25:43.430Z,7.9
2023-04-26T22:26:44.824Z,7.9
2023-04-26T22:27:46.372Z,7.9
2023-04-26T22:28:47.877Z,7.9
2023-04-26T22:29:49.491Z,7.9
2023-04-26T22:30:51.055Z,7.9
2023-04-26T22:31:52.750Z,7.9
2023-04-26T22:32:55.786Z,7.9
2023-04-26T22:33:57.169Z,7.9
2023-04-26T22:34:58.786Z,7.8
2023-04-26T22:36:00.193Z,7.8
2023-04-26T22:37:22.732Z,7.8
2023-04-26T22:38:24.086Z,7.8
2023-04-26T22:39:25.632Z,7.8
2023-04-26T22:40:27.047Z,7.8
2023-04-26T22:41:28.426Z,7.9
2023-04-26T22:42:29.831Z,7.9
2023-04-26T22:43:31.384Z,7.9
2023-04-26T22:44:32.975Z,7.9
2023-04-26T22:45:34.812Z,7.9
2023-04-26T22:46:36.541Z,7.9
2023-04-26T22:47:38.252Z,7.9
2023-04-26T22:48:39.659Z,7.9
2023-04-26T22:49:41.181Z,7.9
2023-04-26T22:50:42.696Z,7.2
